sensor_id;sensor_type;location;lat;lon;timestamp;P1;durP1;ratioP1;P2;durP2;ratioP2
19940;SDS011;10132;50.864;5.176;2022-12-29T00:00:06;1.03;;;0.80;;
19940;SDS011;10132;50.864;5.176;2022-12-29T00:02:09;1.23;;;0.80;;
19940;SDS011;10132;50.864;5.176;2022-12-29T00:04:13;1.17;;;0.83;;
19940;SDS011;10132;50.864;5.176;2022-12-29T00:06:16;1.10;;;1.00;;
19940;SDS011;10132;50.864;5.176;2022-12-29T00:08:18;0.80;;;0.80;;
19940;SDS011;10132;50.864;5.176;2022-12-29T00:10:20;0.93;;;0.80;;
19940;SDS011;10132;50.864;5.176;2022-12-29T00:12:22;1.13;;;0.80;;
19940;SDS011;10132;50.864;5.176;2022-12-29T00:14:24;1.50;;;1.00;;
19940;SDS011;10132;50.864;5.176;2022-12-29T00:16:44;1.37;;;0.60;;
19940;SDS011;10132;50.864;5.176;2022-12-29T00:18:45;0.70;;;0.70;;
19940;SDS011;10132;50.864;5.176;2022-12-29T00:20:49;1.30;;;0.60;;
19940;SDS011;10132;50.864;5.176;2022-12-29T00:23:13;1.33;;;0.60;;
19940;SDS011;10132;50.864;5.176;2022-12-29T00:25:32;1.10;;;0.80;;
19940;SDS011;10132;50.864;5.176;2022-12-29T00:27:54;0.50;;;0.50;;
19940;SDS011;10132;50.864;5.176;2022-12-29T00:30:14;1.20;;;0.80;;
19940;SDS011;10132;50.864;5.176;2022-12-29T00:32:34;1.13;;;0.77;;
19940;SDS011;10132;50.864;5.176;2022-12-29T00:34:53;1.23;;;0.60;;
19940;SDS011;10132;50.864;5.176;2022-12-29T00:37:11;0.93;;;0.70;;
19940;SDS011;10132;50.864;5.176;2022-12-29T00:39:14;1.53;;;0.70;;
19940;SDS011;10132;50.864;5.176;2022-12-29T00:41:36;0.70;;;0.63;;
19940;SDS011;10132;50.864;5.176;2022-12-29T00:43:56;1.37;;;0.60;;
19940;SDS011;10132;50.864;5.176;2022-12-29T00:46:07;1.20;;;0.60;;
19940;SDS011;10132;50.864;5.176;2022-12-29T00:48:08;0.67;;;0.67;;
19940;SDS011;10132;50.864;5.176;2022-12-29T00:50:10;1.27;;;0.67;;
19940;SDS011;10132;50.864;5.176;2022-12-29T00:52:13;1.47;;;0.70;;
19940;SDS011;10132;50.864;5.176;2022-12-29T00:54:15;1.40;;;0.80;;
19940;SDS011;10132;50.864;5.176;2022-12-29T00:56:17;1.60;;;0.73;;
19940;SDS011;10132;50.864;5.176;2022-12-29T00:58:20;1.00;;;0.90;;
19940;SDS011;10132;50.864;5.176;2022-12-29T01:00:21;2.30;;;0.90;;
19940;SDS011;10132;50.864;5.176;2022-12-29T01:02:23;1.17;;;0.70;;
19940;SDS011;10132;50.864;5.176;2022-12-29T01:04:28;1.03;;;0.60;;
19940;SDS011;10132;50.864;5.176;2022-12-29T01:06:30;2.77;;;0.80;;
19940;SDS011;10132;50.864;5.176;2022-12-29T01:08:34;1.77;;;1.07;;
19940;SDS011;10132;50.864;5.176;2022-12-29T01:10:36;1.43;;;1.10;;
19940;SDS011;10132;50.864;5.176;2022-12-29T01:12:38;1.53;;;0.80;;
19940;SDS011;10132;50.864;5.176;2022-12-29T01:14:44;1.73;;;0.83;;
19940;SDS011;10132;50.864;5.176;2022-12-29T01:16:47;1.57;;;0.90;;
19940;SDS011;10132;50.864;5.176;2022-12-29T01:18:49;1.90;;;1.00;;
19940;SDS011;10132;50.864;5.176;2022-12-29T01:20:51;3.13;;;0.90;;
19940;SDS011;10132;50.864;5.176;2022-12-29T01:22:59;1.00;;;0.90;;
19940;SDS011;10132;50.864;5.176;2022-12-29T01:25:02;3.53;;;0.97;;
19940;SDS011;10132;50.864;5.176;2022-12-29T01:27:05;3.37;;;0.90;;
19940;SDS011;10132;50.864;5.176;2022-12-29T01:29:07;2.30;;;0.83;;
19940;SDS011;10132;50.864;5.176;2022-12-29T01:31:09;2.87;;;0.80;;
19940;SDS011;10132;50.864;5.176;2022-12-29T01:33:13;2.83;;;1.20;;
19940;SDS011;10132;50.864;5.176;2022-12-29T01:35:16;4.53;;;1.03;;
19940;SDS011;10132;50.864;5.176;2022-12-29T01:37:17;4.33;;;0.83;;
19940;SDS011;10132;50.864;5.176;2022-12-29T01:39:19;2.27;;;1.07;;
19940;SDS011;10132;50.864;5.176;2022-12-29T01:41:23;2.23;;;1.00;;
19940;SDS011;10132;50.864;5.176;2022-12-29T01:43:37;1.10;;;0.80;;
19940;SDS011;10132;50.864;5.176;2022-12-29T01:45:42;3.03;;;1.17;;
19940;SDS011;10132;50.864;5.176;2022-12-29T01:47:49;5.20;;;0.93;;
19940;SDS011;10132;50.864;5.176;2022-12-29T01:49:55;3.27;;;1.00;;
19940;SDS011;10132;50.864;5.176;2022-12-29T01:52:00;3.23;;;1.10;;
19940;SDS011;10132;50.864;5.176;2022-12-29T01:54:07;5.93;;;0.97;;
19940;SDS011;10132;50.864;5.176;2022-12-29T01:56:11;1.70;;;0.90;;
19940;SDS011;10132;50.864;5.176;2022-12-29T01:58:19;2.07;;;1.00;;
19940;SDS011;10132;50.864;5.176;2022-12-29T02:00:23;3.27;;;1.20;;
19940;SDS011;10132;50.864;5.176;2022-12-29T02:02:25;2.47;;;0.80;;
19940;SDS011;10132;50.864;5.176;2022-12-29T02:04:29;2.10;;;0.90;;
19940;SDS011;10132;50.864;5.176;2022-12-29T02:06:35;2.50;;;0.90;;
19940;SDS011;10132;50.864;5.176;2022-12-29T02:08:42;1.43;;;0.90;;
19940;SDS011;10132;50.864;5.176;2022-12-29T02:10:46;3.87;;;1.00;;
19940;SDS011;10132;50.864;5.176;2022-12-29T02:12:48;2.10;;;0.80;;
19940;SDS011;10132;50.864;5.176;2022-12-29T02:14:53;3.20;;;0.90;;
19940;SDS011;10132;50.864;5.176;2022-12-29T02:17:01;3.00;;;0.90;;
19940;SDS011;10132;50.864;5.176;2022-12-29T02:19:26;2.07;;;1.00;;
19940;SDS011;10132;50.864;5.176;2022-12-29T02:22:06;1.40;;;1.10;;
19940;SDS011;10132;50.864;5.176;2022-12-29T02:27:30;1.13;;;0.80;;
19940;SDS011;10132;50.864;5.176;2022-12-29T02:29:58;3.20;;;1.10;;
19940;SDS011;10132;50.864;5.176;2022-12-29T02:32:10;1.73;;;0.80;;
19940;SDS011;10132;50.864;5.176;2022-12-29T02:34:21;2.30;;;0.90;;
19940;SDS011;10132;50.864;5.176;2022-12-29T02:36:29;2.13;;;0.90;;
19940;SDS011;10132;50.864;5.176;2022-12-29T02:38:49;1.97;;;0.83;;
19940;SDS011;10132;50.864;5.176;2022-12-29T02:40:58;1.13;;;0.77;;
19940;SDS011;10132;50.864;5.176;2022-12-29T02:43:10;2.70;;;0.70;;
19940;SDS011;10132;50.864;5.176;2022-12-29T02:45:20;1.10;;;0.53;;
19940;SDS011;10132;50.864;5.176;2022-12-29T02:47:29;1.97;;;0.50;;
19940;SDS011;10132;50.864;5.176;2022-12-29T02:49:38;1.87;;;0.60;;
19940;SDS011;10132;50.864;5.176;2022-12-29T02:51:48;0.50;;;0.33;;
19940;SDS011;10132;50.864;5.176;2022-12-29T02:53:54;1.47;;;0.50;;
19940;SDS011;10132;50.864;5.176;2022-12-29T02:56:17;0.70;;;0.50;;
19940;SDS011;10132;50.864;5.176;2022-12-29T02:58:21;1.03;;;0.70;;
19940;SDS011;10132;50.864;5.176;2022-12-29T03:00:24;0.93;;;0.60;;
19940;SDS011;10132;50.864;5.176;2022-12-29T03:05:32;2.40;;;0.60;;
19940;SDS011;10132;50.864;5.176;2022-12-29T03:07:44;1.97;;;0.67;;
19940;SDS011;10132;50.864;5.176;2022-12-29T03:09:52;1.00;;;0.70;;
19940;SDS011;10132;50.864;5.176;2022-12-29T03:12:04;0.80;;;0.50;;
19940;SDS011;10132;50.864;5.176;2022-12-29T03:14:17;2.40;;;0.83;;
19940;SDS011;10132;50.864;5.176;2022-12-29T03:16:47;0.60;;;0.50;;
19940;SDS011;10132;50.864;5.176;2022-12-29T03:18:56;3.73;;;0.70;;
19940;SDS011;10132;50.864;5.176;2022-12-29T03:21:02;2.57;;;0.60;;
19940;SDS011;10132;50.864;5.176;2022-12-29T03:23:08;1.13;;;0.70;;
19940;SDS011;10132;50.864;5.176;2022-12-29T03:25:13;1.53;;;0.90;;
19940;SDS011;10132;50.864;5.176;2022-12-29T03:27:19;1.67;;;0.77;;
19940;SDS011;10132;50.864;5.176;2022-12-29T03:29:24;1.43;;;0.63;;
19940;SDS011;10132;50.864;5.176;2022-12-29T03:31:28;2.13;;;0.80;;
19940;SDS011;10132;50.864;5.176;2022-12-29T03:33:30;2.23;;;0.80;;
19940;SDS011;10132;50.864;5.176;2022-12-29T03:35:35;3.40;;;0.80;;
19940;SDS011;10132;50.864;5.176;2022-12-29T03:37:40;1.83;;;0.80;;
19940;SDS011;10132;50.864;5.176;2022-12-29T03:39:45;2.07;;;0.87;;
19940;SDS011;10132;50.864;5.176;2022-12-29T03:41:48;1.40;;;0.63;;
19940;SDS011;10132;50.864;5.176;2022-12-29T03:43:52;2.57;;;0.80;;
19940;SDS011;10132;50.864;5.176;2022-12-29T03:45:54;3.20;;;0.80;;
19940;SDS011;10132;50.864;5.176;2022-12-29T03:47:56;1.33;;;0.80;;
19940;SDS011;10132;50.864;5.176;2022-12-29T03:49:58;2.27;;;0.80;;
19940;SDS011;10132;50.864;5.176;2022-12-29T03:52:01;3.50;;;0.70;;
19940;SDS011;10132;50.864;5.176;2022-12-29T03:54:03;1.10;;;0.60;;
19940;SDS011;10132;50.864;5.176;2022-12-29T03:56:06;2.13;;;0.80;;
19940;SDS011;10132;50.864;5.176;2022-12-29T03:58:08;2.13;;;0.63;;
19940;SDS011;10132;50.864;5.176;2022-12-29T04:00:10;4.57;;;0.90;;
19940;SDS011;10132;50.864;5.176;2022-12-29T04:02:13;1.40;;;0.70;;
19940;SDS011;10132;50.864;5.176;2022-12-29T04:04:15;2.83;;;1.00;;
19940;SDS011;10132;50.864;5.176;2022-12-29T04:06:17;2.53;;;0.90;;
19940;SDS011;10132;50.864;5.176;2022-12-29T04:08:20;1.63;;;0.80;;
19940;SDS011;10132;50.864;5.176;2022-12-29T04:10:22;2.57;;;0.80;;
19940;SDS011;10132;50.864;5.176;2022-12-29T04:12:24;2.70;;;0.63;;
19940;SDS011;10132;50.864;5.176;2022-12-29T04:14:26;2.60;;;0.67;;
19940;SDS011;10132;50.864;5.176;2022-12-29T04:16:28;4.50;;;0.87;;
19940;SDS011;10132;50.864;5.176;2022-12-29T04:18:30;2.70;;;0.80;;
19940;SDS011;10132;50.864;5.176;2022-12-29T04:20:32;1.73;;;0.70;;
19940;SDS011;10132;50.864;5.176;2022-12-29T04:22:57;2.00;;;0.60;;
19940;SDS011;10132;50.864;5.176;2022-12-29T04:25:01;1.40;;;0.60;;
19940;SDS011;10132;50.864;5.176;2022-12-29T04:27:03;2.13;;;0.60;;
19940;SDS011;10132;50.864;5.176;2022-12-29T04:29:05;3.57;;;0.80;;
19940;SDS011;10132;50.864;5.176;2022-12-29T04:31:07;3.50;;;0.80;;
19940;SDS011;10132;50.864;5.176;2022-12-29T04:33:09;2.23;;;0.80;;
19940;SDS011;10132;50.864;5.176;2022-12-29T04:35:11;1.30;;;0.50;;
19940;SDS011;10132;50.864;5.176;2022-12-29T04:37:13;1.43;;;0.60;;
19940;SDS011;10132;50.864;5.176;2022-12-29T04:39:15;4.63;;;0.73;;
19940;SDS011;10132;50.864;5.176;2022-12-29T04:41:19;2.20;;;0.60;;
19940;SDS011;10132;50.864;5.176;2022-12-29T04:43:20;2.03;;;0.70;;
19940;SDS011;10132;50.864;5.176;2022-12-29T04:45:23;3.30;;;0.97;;
19940;SDS011;10132;50.864;5.176;2022-12-29T04:47:25;3.33;;;0.93;;
19940;SDS011;10132;50.864;5.176;2022-12-29T04:49:26;2.23;;;0.63;;
19940;SDS011;10132;50.864;5.176;2022-12-29T04:51:28;1.47;;;0.70;;
19940;SDS011;10132;50.864;5.176;2022-12-29T04:53:30;2.37;;;0.90;;
19940;SDS011;10132;50.864;5.176;2022-12-29T04:55:32;3.17;;;0.80;;
19940;SDS011;10132;50.864;5.176;2022-12-29T04:57:36;2.60;;;0.67;;
19940;SDS011;10132;50.864;5.176;2022-12-29T04:59:38;8.67;;;1.00;;
19940;SDS011;10132;50.864;5.176;2022-12-29T05:01:40;2.73;;;1.00;;
19940;SDS011;10132;50.864;5.176;2022-12-29T05:03:42;2.40;;;0.70;;
19940;SDS011;10132;50.864;5.176;2022-12-29T05:05:44;2.17;;;0.87;;
19940;SDS011;10132;50.864;5.176;2022-12-29T05:07:46;3.77;;;1.07;;
19940;SDS011;10132;50.864;5.176;2022-12-29T05:09:48;2.97;;;1.10;;
19940;SDS011;10132;50.864;5.176;2022-12-29T05:11:50;3.57;;;1.10;;
19940;SDS011;10132;50.864;5.176;2022-12-29T05:13:53;4.30;;;1.10;;
19940;SDS011;10132;50.864;5.176;2022-12-29T05:15:55;2.30;;;1.10;;
19940;SDS011;10132;50.864;5.176;2022-12-29T05:17:58;3.87;;;0.80;;
19940;SDS011;10132;50.864;5.176;2022-12-29T05:20:00;4.03;;;0.90;;
19940;SDS011;10132;50.864;5.176;2022-12-29T05:22:02;3.10;;;0.80;;
19940;SDS011;10132;50.864;5.176;2022-12-29T05:24:04;5.20;;;0.90;;
19940;SDS011;10132;50.864;5.176;2022-12-29T05:26:06;2.80;;;0.70;;
19940;SDS011;10132;50.864;5.176;2022-12-29T05:28:08;4.37;;;0.93;;
19940;SDS011;10132;50.864;5.176;2022-12-29T05:30:12;4.13;;;0.90;;
19940;SDS011;10132;50.864;5.176;2022-12-29T05:32:14;3.47;;;0.80;;
19940;SDS011;10132;50.864;5.176;2022-12-29T05:34:16;2.77;;;0.90;;
19940;SDS011;10132;50.864;5.176;2022-12-29T05:36:18;3.73;;;0.93;;
19940;SDS011;10132;50.864;5.176;2022-12-29T05:38:20;3.70;;;1.00;;
19940;SDS011;10132;50.864;5.176;2022-12-29T05:40:22;4.60;;;1.00;;
19940;SDS011;10132;50.864;5.176;2022-12-29T05:42:24;3.03;;;0.73;;
19940;SDS011;10132;50.864;5.176;2022-12-29T05:44:26;5.57;;;1.23;;
19940;SDS011;10132;50.864;5.176;2022-12-29T05:46:30;2.53;;;0.93;;
19940;SDS011;10132;50.864;5.176;2022-12-29T05:48:32;3.00;;;1.10;;
19940;SDS011;10132;50.864;5.176;2022-12-29T05:50:34;4.27;;;1.07;;
19940;SDS011;10132;50.864;5.176;2022-12-29T05:52:35;4.50;;;1.03;;
19940;SDS011;10132;50.864;5.176;2022-12-29T05:54:37;4.50;;;1.10;;
19940;SDS011;10132;50.864;5.176;2022-12-29T05:56:39;3.97;;;0.73;;
19940;SDS011;10132;50.864;5.176;2022-12-29T05:58:41;2.33;;;0.93;;
19940;SDS011;10132;50.864;5.176;2022-12-29T06:00:43;2.10;;;0.90;;
19940;SDS011;10132;50.864;5.176;2022-12-29T06:02:47;3.87;;;1.20;;
19940;SDS011;10132;50.864;5.176;2022-12-29T06:04:49;6.30;;;1.33;;
19940;SDS011;10132;50.864;5.176;2022-12-29T06:06:51;4.83;;;1.17;;
19940;SDS011;10132;50.864;5.176;2022-12-29T06:08:53;7.13;;;1.13;;
19940;SDS011;10132;50.864;5.176;2022-12-29T06:10:55;4.57;;;1.10;;
19940;SDS011;10132;50.864;5.176;2022-12-29T06:12:57;5.30;;;1.13;;
19940;SDS011;10132;50.864;5.176;2022-12-29T06:14:59;4.97;;;1.00;;
19940;SDS011;10132;50.864;5.176;2022-12-29T06:17:01;6.23;;;1.30;;
19940;SDS011;10132;50.864;5.176;2022-12-29T06:19:04;5.90;;;0.90;;
19940;SDS011;10132;50.864;5.176;2022-12-29T06:21:06;8.27;;;1.30;;
19940;SDS011;10132;50.864;5.176;2022-12-29T06:23:08;4.47;;;1.20;;
19940;SDS011;10132;50.864;5.176;2022-12-29T06:25:12;6.13;;;1.53;;
19940;SDS011;10132;50.864;5.176;2022-12-29T06:27:13;8.63;;;1.40;;
19940;SDS011;10132;50.864;5.176;2022-12-29T06:29:16;6.97;;;1.60;;
19940;SDS011;10132;50.864;5.176;2022-12-29T06:31:18;4.10;;;1.17;;
19940;SDS011;10132;50.864;5.176;2022-12-29T06:33:19;6.23;;;1.50;;
19940;SDS011;10132;50.864;5.176;2022-12-29T06:35:23;5.57;;;1.30;;
19940;SDS011;10132;50.864;5.176;2022-12-29T06:37:25;9.40;;;1.50;;
19940;SDS011;10132;50.864;5.176;2022-12-29T06:39:27;8.93;;;1.27;;
19940;SDS011;10132;50.864;5.176;2022-12-29T06:41:29;7.43;;;1.37;;
19940;SDS011;10132;50.864;5.176;2022-12-29T06:43:31;7.13;;;1.47;;
19940;SDS011;10132;50.864;5.176;2022-12-29T06:45:34;6.50;;;1.13;;
19940;SDS011;10132;50.864;5.176;2022-12-29T06:47:36;5.60;;;1.30;;
19940;SDS011;10132;50.864;5.176;2022-12-29T06:49:38;3.97;;;1.13;;
19940;SDS011;10132;50.864;5.176;2022-12-29T06:51:42;6.47;;;1.33;;
19940;SDS011;10132;50.864;5.176;2022-12-29T06:53:44;6.80;;;1.90;;
19940;SDS011;10132;50.864;5.176;2022-12-29T06:55:45;5.00;;;1.47;;
19940;SDS011;10132;50.864;5.176;2022-12-29T06:57:47;4.30;;;1.17;;
19940;SDS011;10132;50.864;5.176;2022-12-29T06:59:49;6.90;;;1.37;;
19940;SDS011;10132;50.864;5.176;2022-12-29T07:01:51;8.53;;;1.40;;
19940;SDS011;10132;50.864;5.176;2022-12-29T07:03:53;6.73;;;1.47;;
19940;SDS011;10132;50.864;5.176;2022-12-29T07:05:55;8.70;;;1.87;;
19940;SDS011;10132;50.864;5.176;2022-12-29T07:08:00;5.10;;;1.20;;
19940;SDS011;10132;50.864;5.176;2022-12-29T07:10:02;7.07;;;1.43;;
19940;SDS011;10132;50.864;5.176;2022-12-29T07:12:04;5.70;;;1.43;;
19940;SDS011;10132;50.864;5.176;2022-12-29T07:14:07;4.90;;;1.17;;
19940;SDS011;10132;50.864;5.176;2022-12-29T07:16:09;6.53;;;1.00;;
19940;SDS011;10132;50.864;5.176;2022-12-29T07:18:11;6.33;;;1.47;;
19940;SDS011;10132;50.864;5.176;2022-12-29T07:20:13;6.53;;;1.70;;
19940;SDS011;10132;50.864;5.176;2022-12-29T07:22:15;5.57;;;1.20;;
19940;SDS011;10132;50.864;5.176;2022-12-29T07:24:18;3.87;;;1.13;;
19940;SDS011;10132;50.864;5.176;2022-12-29T07:26:21;5.13;;;1.30;;
19940;SDS011;10132;50.864;5.176;2022-12-29T07:28:23;8.63;;;1.50;;
19940;SDS011;10132;50.864;5.176;2022-12-29T07:30:25;8.40;;;1.77;;
19940;SDS011;10132;50.864;5.176;2022-12-29T07:32:27;7.57;;;1.43;;
19940;SDS011;10132;50.864;5.176;2022-12-29T07:34:29;9.60;;;1.37;;
19940;SDS011;10132;50.864;5.176;2022-12-29T07:36:31;8.47;;;1.50;;
19940;SDS011;10132;50.864;5.176;2022-12-29T07:38:33;7.60;;;1.67;;
19940;SDS011;10132;50.864;5.176;2022-12-29T07:40:36;4.87;;;1.20;;
19940;SDS011;10132;50.864;5.176;2022-12-29T07:42:38;4.70;;;1.13;;
19940;SDS011;10132;50.864;5.176;2022-12-29T07:44:40;7.97;;;1.90;;
19940;SDS011;10132;50.864;5.176;2022-12-29T07:46:42;8.87;;;1.63;;
19940;SDS011;10132;50.864;5.176;2022-12-29T07:48:44;8.07;;;1.60;;
19940;SDS011;10132;50.864;5.176;2022-12-29T07:50:46;6.70;;;1.50;;
19940;SDS011;10132;50.864;5.176;2022-12-29T07:52:48;9.73;;;1.37;;
19940;SDS011;10132;50.864;5.176;2022-12-29T07:54:50;7.20;;;1.33;;
19940;SDS011;10132;50.864;5.176;2022-12-29T07:56:54;6.30;;;1.40;;
19940;SDS011;10132;50.864;5.176;2022-12-29T07:58:55;5.70;;;1.40;;
19940;SDS011;10132;50.864;5.176;2022-12-29T08:00:57;9.17;;;1.70;;
19940;SDS011;10132;50.864;5.176;2022-12-29T08:02:59;8.73;;;1.40;;
19940;SDS011;10132;50.864;5.176;2022-12-29T08:05:02;7.17;;;1.53;;
19940;SDS011;10132;50.864;5.176;2022-12-29T08:07:04;9.23;;;1.50;;
19940;SDS011;10132;50.864;5.176;2022-12-29T08:09:06;7.20;;;1.77;;
19940;SDS011;10132;50.864;5.176;2022-12-29T08:11:08;6.03;;;1.37;;
19940;SDS011;10132;50.864;5.176;2022-12-29T08:13:12;7.73;;;1.57;;
19940;SDS011;10132;50.864;5.176;2022-12-29T08:15:14;9.30;;;1.60;;
19940;SDS011;10132;50.864;5.176;2022-12-29T08:17:16;6.30;;;1.50;;
19940;SDS011;10132;50.864;5.176;2022-12-29T08:19:18;8.73;;;1.77;;
19940;SDS011;10132;50.864;5.176;2022-12-29T08:21:20;9.20;;;1.60;;
19940;SDS011;10132;50.864;5.176;2022-12-29T08:23:22;5.93;;;1.43;;
19940;SDS011;10132;50.864;5.176;2022-12-29T08:25:24;7.20;;;1.57;;
19940;SDS011;10132;50.864;5.176;2022-12-29T08:27:26;5.97;;;1.60;;
19940;SDS011;10132;50.864;5.176;2022-12-29T08:29:29;9.57;;;2.27;;
19940;SDS011;10132;50.864;5.176;2022-12-29T08:31:31;8.53;;;2.07;;
19940;SDS011;10132;50.864;5.176;2022-12-29T08:33:33;8.80;;;1.60;;
19940;SDS011;10132;50.864;5.176;2022-12-29T08:35:35;6.43;;;1.70;;
19940;SDS011;10132;50.864;5.176;2022-12-29T08:37:37;8.03;;;1.70;;
19940;SDS011;10132;50.864;5.176;2022-12-29T08:39:39;7.67;;;1.80;;
19940;SDS011;10132;50.864;5.176;2022-12-29T08:41:41;8.80;;;1.60;;
19940;SDS011;10132;50.864;5.176;2022-12-29T08:43:45;7.50;;;1.57;;
19940;SDS011;10132;50.864;5.176;2022-12-29T08:45:48;10.47;;;1.97;;
19940;SDS011;10132;50.864;5.176;2022-12-29T08:47:50;6.33;;;1.53;;
19940;SDS011;10132;50.864;5.176;2022-12-29T08:49:52;8.70;;;1.80;;
19940;SDS011;10132;50.864;5.176;2022-12-29T08:51:54;5.30;;;1.33;;
19940;SDS011;10132;50.864;5.176;2022-12-29T08:53:56;7.83;;;1.80;;
19940;SDS011;10132;50.864;5.176;2022-12-29T08:55:59;4.60;;;1.43;;
19940;SDS011;10132;50.864;5.176;2022-12-29T08:58:02;9.13;;;1.77;;
19940;SDS011;10132;50.864;5.176;2022-12-29T09:00:04;7.13;;;1.33;;
19940;SDS011;10132;50.864;5.176;2022-12-29T09:02:10;8.67;;;1.67;;
19940;SDS011;10132;50.864;5.176;2022-12-29T09:04:13;5.67;;;1.60;;
19940;SDS011;10132;50.864;5.176;2022-12-29T09:06:15;6.37;;;1.70;;
19940;SDS011;10132;50.864;5.176;2022-12-29T09:08:18;6.17;;;1.53;;
19940;SDS011;10132;50.864;5.176;2022-12-29T09:10:21;6.63;;;1.60;;
19940;SDS011;10132;50.864;5.176;2022-12-29T09:12:23;7.40;;;1.47;;
19940;SDS011;10132;50.864;5.176;2022-12-29T09:14:25;7.57;;;1.53;;
19940;SDS011;10132;50.864;5.176;2022-12-29T09:16:27;5.57;;;1.70;;
19940;SDS011;10132;50.864;5.176;2022-12-29T09:18:30;4.30;;;1.13;;
19940;SDS011;10132;50.864;5.176;2022-12-29T09:20:33;5.80;;;1.40;;
19940;SDS011;10132;50.864;5.176;2022-12-29T09:22:35;8.87;;;2.20;;
19940;SDS011;10132;50.864;5.176;2022-12-29T09:24:37;7.30;;;1.70;;
19940;SDS011;10132;50.864;5.176;2022-12-29T09:26:39;6.50;;;1.67;;
19940;SDS011;10132;50.864;5.176;2022-12-29T09:28:41;7.57;;;1.70;;
19940;SDS011;10132;50.864;5.176;2022-12-29T09:30:44;11.27;;;1.80;;
19940;SDS011;10132;50.864;5.176;2022-12-29T09:32:46;10.40;;;1.73;;
19940;SDS011;10132;50.864;5.176;2022-12-29T09:34:49;7.43;;;1.53;;
19940;SDS011;10132;50.864;5.176;2022-12-29T09:36:51;7.70;;;1.80;;
19940;SDS011;10132;50.864;5.176;2022-12-29T09:38:53;7.33;;;1.67;;
19940;SDS011;10132;50.864;5.176;2022-12-29T09:40:56;8.07;;;1.67;;
19940;SDS011;10132;50.864;5.176;2022-12-29T09:45:26;8.30;;;2.23;;
19940;SDS011;10132;50.864;5.176;2022-12-29T09:47:33;8.87;;;1.63;;
19940;SDS011;10132;50.864;5.176;2022-12-29T09:49:37;9.70;;;2.00;;
19940;SDS011;10132;50.864;5.176;2022-12-29T09:51:48;9.50;;;1.60;;
19940;SDS011;10132;50.864;5.176;2022-12-29T09:53:53;11.93;;;2.20;;
19940;SDS011;10132;50.864;5.176;2022-12-29T09:55:59;7.53;;;1.53;;
19940;SDS011;10132;50.864;5.176;2022-12-29T09:58:04;8.03;;;2.10;;
19940;SDS011;10132;50.864;5.176;2022-12-29T10:00:13;14.73;;;2.20;;
19940;SDS011;10132;50.864;5.176;2022-12-29T10:02:23;7.23;;;1.93;;
19940;SDS011;10132;50.864;5.176;2022-12-29T10:04:32;8.57;;;2.07;;
19940;SDS011;10132;50.864;5.176;2022-12-29T10:06:36;9.80;;;1.93;;
19940;SDS011;10132;50.864;5.176;2022-12-29T10:08:48;11.03;;;2.00;;
19940;SDS011;10132;50.864;5.176;2022-12-29T10:10:56;8.10;;;1.80;;
19940;SDS011;10132;50.864;5.176;2022-12-29T10:13:13;16.83;;;3.03;;
19940;SDS011;10132;50.864;5.176;2022-12-29T10:15:39;9.43;;;1.90;;
19940;SDS011;10132;50.864;5.176;2022-12-29T10:17:48;9.07;;;2.10;;
19940;SDS011;10132;50.864;5.176;2022-12-29T10:20:15;9.83;;;2.07;;
19940;SDS011;10132;50.864;5.176;2022-12-29T10:22:31;9.30;;;2.10;;
19940;SDS011;10132;50.864;5.176;2022-12-29T10:24:41;10.17;;;2.00;;
19940;SDS011;10132;50.864;5.176;2022-12-29T10:26:48;11.33;;;2.00;;
19940;SDS011;10132;50.864;5.176;2022-12-29T10:28:54;7.23;;;1.83;;
19940;SDS011;10132;50.864;5.176;2022-12-29T10:30:59;10.33;;;1.83;;
19940;SDS011;10132;50.864;5.176;2022-12-29T10:33:04;8.33;;;2.07;;
19940;SDS011;10132;50.864;5.176;2022-12-29T10:35:13;8.33;;;1.80;;
19940;SDS011;10132;50.864;5.176;2022-12-29T10:37:21;6.50;;;1.70;;
19940;SDS011;10132;50.864;5.176;2022-12-29T10:39:30;10.40;;;2.20;;
19940;SDS011;10132;50.864;5.176;2022-12-29T10:41:39;10.50;;;2.30;;
19940;SDS011;10132;50.864;5.176;2022-12-29T10:43:47;6.63;;;1.60;;
19940;SDS011;10132;50.864;5.176;2022-12-29T10:45:52;5.30;;;1.73;;
19940;SDS011;10132;50.864;5.176;2022-12-29T10:47:58;10.30;;;2.10;;
19940;SDS011;10132;50.864;5.176;2022-12-29T10:50:04;8.33;;;1.67;;
19940;SDS011;10132;50.864;5.176;2022-12-29T10:52:07;6.03;;;1.97;;
19940;SDS011;10132;50.864;5.176;2022-12-29T10:54:13;10.23;;;2.37;;
19940;SDS011;10132;50.864;5.176;2022-12-29T10:56:21;10.80;;;1.80;;
19940;SDS011;10132;50.864;5.176;2022-12-29T10:58:32;11.23;;;2.33;;
19940;SDS011;10132;50.864;5.176;2022-12-29T11:00:34;8.67;;;2.60;;
19940;SDS011;10132;50.864;5.176;2022-12-29T11:02:46;10.20;;;2.03;;
19940;SDS011;10132;50.864;5.176;2022-12-29T11:05:10;8.03;;;1.83;;
19940;SDS011;10132;50.864;5.176;2022-12-29T11:07:21;9.90;;;1.90;;
19940;SDS011;10132;50.864;5.176;2022-12-29T11:09:24;4.20;;;1.67;;
19940;SDS011;10132;50.864;5.176;2022-12-29T11:11:32;7.63;;;2.43;;
19940;SDS011;10132;50.864;5.176;2022-12-29T11:13:46;8.80;;;2.10;;
19940;SDS011;10132;50.864;5.176;2022-12-29T11:15:49;9.23;;;2.10;;
19940;SDS011;10132;50.864;5.176;2022-12-29T11:17:52;9.83;;;1.90;;
19940;SDS011;10132;50.864;5.176;2022-12-29T11:19:57;7.13;;;1.90;;
19940;SDS011;10132;50.864;5.176;2022-12-29T11:22:12;10.13;;;1.97;;
19940;SDS011;10132;50.864;5.176;2022-12-29T11:24:20;12.40;;;1.90;;
19940;SDS011;10132;50.864;5.176;2022-12-29T11:26:24;5.63;;;1.50;;
19940;SDS011;10132;50.864;5.176;2022-12-29T11:28:26;7.40;;;1.53;;
19940;SDS011;10132;50.864;5.176;2022-12-29T11:30:32;10.90;;;2.13;;
19940;SDS011;10132;50.864;5.176;2022-12-29T11:32:34;9.90;;;2.53;;
19940;SDS011;10132;50.864;5.176;2022-12-29T11:34:35;6.87;;;1.60;;
19940;SDS011;10132;50.864;5.176;2022-12-29T11:36:37;10.57;;;2.00;;
19940;SDS011;10132;50.864;5.176;2022-12-29T11:38:40;8.87;;;1.77;;
19940;SDS011;10132;50.864;5.176;2022-12-29T11:40:46;6.27;;;1.57;;
19940;SDS011;10132;50.864;5.176;2022-12-29T11:42:50;5.80;;;1.73;;
19940;SDS011;10132;50.864;5.176;2022-12-29T11:44:54;8.10;;;1.90;;
19940;SDS011;10132;50.864;5.176;2022-12-29T11:46:58;5.50;;;1.50;;
19940;SDS011;10132;50.864;5.176;2022-12-29T11:49:00;10.17;;;2.10;;
19940;SDS011;10132;50.864;5.176;2022-12-29T11:51:04;7.33;;;1.60;;
19940;SDS011;10132;50.864;5.176;2022-12-29T11:53:07;9.80;;;1.93;;
19940;SDS011;10132;50.864;5.176;2022-12-29T11:55:18;7.53;;;1.57;;
19940;SDS011;10132;50.864;5.176;2022-12-29T11:57:23;6.07;;;1.60;;
19940;SDS011;10132;50.864;5.176;2022-12-29T11:59:34;9.87;;;1.90;;
19940;SDS011;10132;50.864;5.176;2022-12-29T12:01:41;9.47;;;2.20;;
19940;SDS011;10132;50.864;5.176;2022-12-29T12:03:47;5.17;;;1.40;;
19940;SDS011;10132;50.864;5.176;2022-12-29T12:05:54;7.33;;;1.83;;
19940;SDS011;10132;50.864;5.176;2022-12-29T12:08:01;8.37;;;1.50;;
19940;SDS011;10132;50.864;5.176;2022-12-29T12:10:15;10.53;;;1.83;;
19940;SDS011;10132;50.864;5.176;2022-12-29T12:12:23;7.60;;;1.90;;
19940;SDS011;10132;50.864;5.176;2022-12-29T12:14:30;7.30;;;1.70;;
19940;SDS011;10132;50.864;5.176;2022-12-29T12:16:37;5.53;;;1.47;;
19940;SDS011;10132;50.864;5.176;2022-12-29T12:18:43;8.17;;;1.40;;
19940;SDS011;10132;50.864;5.176;2022-12-29T12:20:51;4.67;;;1.67;;
19940;SDS011;10132;50.864;5.176;2022-12-29T12:22:58;9.77;;;2.40;;
19940;SDS011;10132;50.864;5.176;2022-12-29T12:25:10;6.87;;;1.90;;
19940;SDS011;10132;50.864;5.176;2022-12-29T12:27:20;8.70;;;1.77;;
19940;SDS011;10132;50.864;5.176;2022-12-29T12:29:26;8.80;;;2.27;;
19940;SDS011;10132;50.864;5.176;2022-12-29T12:31:39;7.30;;;1.73;;
19940;SDS011;10132;50.864;5.176;2022-12-29T12:33:49;7.10;;;1.50;;
19940;SDS011;10132;50.864;5.176;2022-12-29T12:35:59;5.73;;;1.60;;
19940;SDS011;10132;50.864;5.176;2022-12-29T12:38:17;5.97;;;1.50;;
19940;SDS011;10132;50.864;5.176;2022-12-29T12:40:33;7.13;;;1.47;;
19940;SDS011;10132;50.864;5.176;2022-12-29T12:42:45;6.90;;;1.70;;